sensor_id;sensor_type;location;lat;lon;timestamp;temperature;humidity
22680;DHT22;11507;44.858;10.374;2023-11-21T00:02:08;10.10;99.90
22680;DHT22;11507;44.858;10.374;2023-11-21T00:04:34;10.00;99.90
22680;DHT22;11507;44.858;10.374;2023-11-21T00:07:00;10.00;99.90
22680;DHT22;11507;44.858;10.374;2023-11-21T00:09:26;10.00;99.90
22680;DHT22;11507;44.858;10.374;2023-11-21T00:11:52;10.00;99.90
22680;DHT22;11507;44.858;10.374;2023-11-21T00:14:18;10.00;99.90
22680;DHT22;11507;44.858;10.374;2023-11-21T00:16:45;9.90;99.90
22680;DHT22;11507;44.858;10.374;2023-11-21T00:19:12;9.90;99.90
22680;DHT22;11507;44.858;10.374;2023-11-21T00:21:38;9.80;99.90
22680;DHT22;11507;44.858;10.374;2023-11-21T00:24:04;9.80;99.90
22680;DHT22;11507;44.858;10.374;2023-11-21T00:26:30;9.80;99.90
22680;DHT22;11507;44.858;10.374;2023-11-21T00:29:03;9.70;99.90
22680;DHT22;11507;44.858;10.374;2023-11-21T00:31:30;9.70;99.90
22680;DHT22;11507;44.858;10.374;2023-11-21T00:33:56;9.70;99.90
22680;DHT22;11507;44.858;10.374;2023-11-21T00:36:25;9.70;99.90
22680;DHT22;11507;44.858;10.374;2023-11-21T00:38:51;9.60;99.90
22680;DHT22;11507;44.858;10.374;2023-11-21T00:41:18;9.60;99.90
22680;DHT22;11507;44.858;10.374;2023-11-21T00:43:44;9.60;99.90
22680;DHT22;11507;44.858;10.374;2023-11-21T00:46:10;9.60;99.90
22680;DHT22;11507;44.858;10.374;2023-11-21T00:48:36;9.60;99.90
22680;DHT22;11507;44.858;10.374;2023-11-21T00:51:02;9.60;99.90
22680;DHT22;11507;44.858;10.374;2023-11-21T00:53:28;9.60;99.90
22680;DHT22;11507;44.858;10.374;2023-11-21T00:55:54;9.60;99.90
22680;DHT22;11507;44.858;10.374;2023-11-21T00:58:24;9.70;99.90
22680;DHT22;11507;44.858;10.374;2023-11-21T01:00:50;9.70;99.90
22680;DHT22;11507;44.858;10.374;2023-11-21T01:03:16;9.70;99.90
22680;DHT22;11507;44.858;10.374;2023-11-21T01:05:44;9.70;99.90
22680;DHT22;11507;44.858;10.374;2023-11-21T01:08:12;9.70;99.90
22680;DHT22;11507;44.858;10.374;2023-11-21T01:10:40;9.70;99.90
22680;DHT22;11507;44.858;10.374;2023-11-21T01:13:06;9.70;99.90
22680;DHT22;11507;44.858;10.374;2023-11-21T01:18:42;9.80;99.90
22680;DHT22;11507;44.858;10.374;2023-11-21T01:21:09;9.70;99.90
22680;DHT22;11507;44.858;10.374;2023-11-21T01:23:35;9.80;99.90
22680;DHT22;11507;44.858;10.374;2023-11-21T01:26:01;9.80;99.90
22680;DHT22;11507;44.858;10.374;2023-11-21T01:28:30;9.70;99.90
22680;DHT22;11507;44.858;10.374;2023-11-21T01:30:57;9.70;99.90
22680;DHT22;11507;44.858;10.374;2023-11-21T01:34:07;9.80;99.90
22680;DHT22;11507;44.858;10.374;2023-11-21T01:36:34;9.70;99.90
22680;DHT22;11507;44.858;10.374;2023-11-21T01:39:01;9.80;99.90
22680;DHT22;11507;44.858;10.374;2023-11-21T01:41:28;9.80;99.90
22680;DHT22;11507;44.858;10.374;2023-11-21T01:43:55;9.80;99.90
22680;DHT22;11507;44.858;10.374;2023-11-21T01:46:22;9.80;99.90
22680;DHT22;11507;44.858;10.374;2023-11-21T01:49:19;9.80;99.90
22680;DHT22;11507;44.858;10.374;2023-11-21T01:51:48;9.80;99.90
22680;DHT22;11507;44.858;10.374;2023-11-21T01:54:19;9.80;99.90
22680;DHT22;11507;44.858;10.374;2023-11-21T01:56:47;9.80;99.90
22680;DHT22;11507;44.858;10.374;2023-11-21T01:59:21;9.80;99.90
22680;DHT22;11507;44.858;10.374;2023-11-21T02:01:48;9.80;99.90
22680;DHT22;11507;44.858;10.374;2023-11-21T02:04:16;9.80;99.90
22680;DHT22;11507;44.858;10.374;2023-11-21T02:06:42;9.80;99.90
22680;DHT22;11507;44.858;10.374;2023-11-21T02:09:09;9.80;99.90
22680;DHT22;11507;44.858;10.374;2023-11-21T02:11:35;9.80;99.90
22680;DHT22;11507;44.858;10.374;2023-11-21T02:14:01;9.80;99.90
22680;DHT22;11507;44.858;10.374;2023-11-21T02:16:34;9.80;99.90
22680;DHT22;11507;44.858;10.374;2023-11-21T02:19:02;9.80;99.90
22680;DHT22;11507;44.858;10.374;2023-11-21T02:21:30;9.80;99.90
22680;DHT22;11507;44.858;10.374;2023-11-21T02:23:57;9.80;99.90
22680;DHT22;11507;44.858;10.374;2023-11-21T02:26:23;9.80;99.90
22680;DHT22;11507;44.858;10.374;2023-11-21T02:28:49;9.80;99.90
22680;DHT22;11507;44.858;10.374;2023-11-21T02:31:15;9.80;99.90
22680;DHT22;11507;44.858;10.374;2023-11-21T02:33:42;9.80;99.90
22680;DHT22;11507;44.858;10.374;2023-11-21T02:36:23;9.80;99.90
22680;DHT22;11507;44.858;10.374;2023-11-21T02:38:49;9.80;99.90
22680;DHT22;11507;44.858;10.374;2023-11-21T02:41:16;9.80;99.90
22680;DHT22;11507;44.858;10.374;2023-11-21T02:46:56;9.80;99.90
22680;DHT22;11507;44.858;10.374;2023-11-21T02:49:23;9.80;99.90
22680;DHT22;11507;44.858;10.374;2023-11-21T02:51:49;9.80;99.90
22680;DHT22;11507;44.858;10.374;2023-11-21T02:57:33;9.80;99.90
22680;DHT22;11507;44.858;10.374;2023-11-21T03:00:00;9.80;99.90
22680;DHT22;11507;44.858;10.374;2023-11-21T03:02:26;9.80;99.90
22680;DHT22;11507;44.858;10.374;2023-11-21T03:04:52;9.80;99.90
22680;DHT22;11507;44.858;10.374;2023-11-21T03:07:19;9.80;99.90
22680;DHT22;11507;44.858;10.374;2023-11-21T03:09:45;9.70;99.90
22680;DHT22;11507;44.858;10.374;2023-11-21T03:12:19;9.80;99.90
22680;DHT22;11507;44.858;10.374;2023-11-21T03:14:52;9.70;99.90
22680;DHT22;11507;44.858;10.374;2023-11-21T03:17:17;9.80;99.90
22680;DHT22;11507;44.858;10.374;2023-11-21T03:19:56;9.80;99.90
22680;DHT22;11507;44.858;10.374;2023-11-21T03:22:45;9.70;99.90
22680;DHT22;11507;44.858;10.374;2023-11-21T03:25:11;9.80;99.90
22680;DHT22;11507;44.858;10.374;2023-11-21T03:27:37;9.80;99.90
22680;DHT22;11507;44.858;10.374;2023-11-21T03:30:07;9.80;99.90
22680;DHT22;11507;44.858;10.374;2023-11-21T03:33:11;9.70;99.90
22680;DHT22;11507;44.858;10.374;2023-11-21T03:35:55;9.70;99.90
22680;DHT22;11507;44.858;10.374;2023-11-21T03:38:21;9.70;99.90
22680;DHT22;11507;44.858;10.374;2023-11-21T03:40:48;9.70;99.90
22680;DHT22;11507;44.858;10.374;2023-11-21T03:43:22;9.70;99.90
22680;DHT22;11507;44.858;10.374;2023-11-21T03:45:51;9.70;99.90
22680;DHT22;11507;44.858;10.374;2023-11-21T03:48:17;9.70;99.90
22680;DHT22;11507;44.858;10.374;2023-11-21T03:50:43;9.70;99.90
22680;DHT22;11507;44.858;10.374;2023-11-21T03:53:09;9.70;99.90
22680;DHT22;11507;44.858;10.374;2023-11-21T03:55:35;9.70;99.90
22680;DHT22;11507;44.858;10.374;2023-11-21T03:58:01;9.70;99.90
22680;DHT22;11507;44.858;10.374;2023-11-21T04:00:42;9.70;99.90
22680;DHT22;11507;44.858;10.374;2023-11-21T04:03:11;9.70;99.90
22680;DHT22;11507;44.858;10.374;2023-11-21T04:05:38;9.60;99.90
22680;DHT22;11507;44.858;10.374;2023-11-21T04:08:04;9.60;99.90
22680;DHT22;11507;44.858;10.374;2023-11-21T04:10:30;9.70;99.90
22680;DHT22;11507;44.858;10.374;2023-11-21T04:13:06;9.70;99.90
22680;DHT22;11507;44.858;10.374;2023-11-21T04:15:32;9.70;99.90
22680;DHT22;11507;44.858;10.374;2023-11-21T04:18:02;9.70;99.90
22680;DHT22;11507;44.858;10.374;2023-11-21T04:20:29;9.70;99.90
22680;DHT22;11507;44.858;10.374;2023-11-21T04:22:55;9.70;99.90
22680;DHT22;11507;44.858;10.374;2023-11-21T04:25:21;9.80;99.90
22680;DHT22;11507;44.858;10.374;2023-11-21T04:27:49;9.80;99.90
22680;DHT22;11507;44.858;10.374;2023-11-21T04:30:15;9.70;99.90
22680;DHT22;11507;44.858;10.374;2023-11-21T04:32:41;9.80;99.90
22680;DHT22;11507;44.858;10.374;2023-11-21T04:35:08;9.80;99.90
22680;DHT22;11507;44.858;10.374;2023-11-21T04:37:35;9.80;99.90
22680;DHT22;11507;44.858;10.374;2023-11-21T04:40:01;9.80;99.90
22680;DHT22;11507;44.858;10.374;2023-11-21T04:42:27;9.80;99.90
22680;DHT22;11507;44.858;10.374;2023-11-21T04:44:55;9.80;99.90
22680;DHT22;11507;44.858;10.374;2023-11-21T04:47:20;9.80;99.90
22680;DHT22;11507;44.858;10.374;2023-11-21T04:49:48;9.70;99.90
22680;DHT22;11507;44.858;10.374;2023-11-21T04:52:14;9.80;99.90
22680;DHT22;11507;44.858;10.374;2023-11-21T04:54:43;9.80;99.90
22680;DHT22;11507;44.858;10.374;2023-11-21T04:57:10;9.80;99.90
22680;DHT22;11507;44.858;10.374;2023-11-21T04:59:38;9.70;99.90
22680;DHT22;11507;44.858;10.374;2023-11-21T05:02:04;9.80;99.90
22680;DHT22;11507;44.858;10.374;2023-11-21T05:04:31;9.80;99.90
22680;DHT22;11507;44.858;10.374;2023-11-21T05:06:57;9.70;99.90
22680;DHT22;11507;44.858;10.374;2023-11-21T05:09:23;9.80;99.90
22680;DHT22;11507;44.858;10.374;2023-11-21T05:12:18;9.70;99.90
22680;DHT22;11507;44.858;10.374;2023-11-21T05:14:48;9.70;99.90
22680;DHT22;11507;44.858;10.374;2023-11-21T05:17:14;9.70;99.90
22680;DHT22;11507;44.858;10.374;2023-11-21T05:19:43;9.70;99.90
22680;DHT22;11507;44.858;10.374;2023-11-21T05:22:11;9.70;99.90
22680;DHT22;11507;44.858;10.374;2023-11-21T05:24:38;9.70;99.90
22680;DHT22;11507;44.858;10.374;2023-11-21T05:27:07;9.70;99.90
22680;DHT22;11507;44.858;10.374;2023-11-21T05:29:35;9.70;99.90
22680;DHT22;11507;44.858;10.374;2023-11-21T05:32:03;9.70;99.90
22680;DHT22;11507;44.858;10.374;2023-11-21T05:34:29;9.70;99.90
22680;DHT22;11507;44.858;10.374;2023-11-21T05:36:55;9.70;99.90
22680;DHT22;11507;44.858;10.374;2023-11-21T05:42:59;9.70;99.90
22680;DHT22;11507;44.858;10.374;2023-11-21T05:45:26;9.70;99.90
22680;DHT22;11507;44.858;10.374;2023-11-21T05:47:52;9.70;99.90
22680;DHT22;11507;44.858;10.374;2023-11-21T05:50:18;9.70;99.90
22680;DHT22;11507;44.858;10.374;2023-11-21T05:52:46;9.70;99.90
22680;DHT22;11507;44.858;10.374;2023-11-21T05:55:12;9.60;99.90
22680;DHT22;11507;44.858;10.374;2023-11-21T05:57:42;9.60;99.90
22680;DHT22;11507;44.858;10.374;2023-11-21T06:00:15;9.60;99.90
22680;DHT22;11507;44.858;10.374;2023-11-21T06:02:52;9.60;99.90
22680;DHT22;11507;44.858;10.374;2023-11-21T06:05:27;9.70;99.90
22680;DHT22;11507;44.858;10.374;2023-11-21T06:07:55;9.60;99.90
22680;DHT22;11507;44.858;10.374;2023-11-21T06:10:26;9.70;99.90
22680;DHT22;11507;44.858;10.374;2023-11-21T06:12:53;9.70;99.90
22680;DHT22;11507;44.858;10.374;2023-11-21T06:15:20;9.70;99.90
22680;DHT22;11507;44.858;10.374;2023-11-21T06:17:48;9.70;99.90
22680;DHT22;11507;44.858;10.374;2023-11-21T06:20:18;9.70;99.90
22680;DHT22;11507;44.858;10.374;2023-11-21T06:22:46;9.70;99.90
22680;DHT22;11507;44.858;10.374;2023-11-21T06:25:13;9.70;99.90
22680;DHT22;11507;44.858;10.374;2023-11-21T06:27:45;9.70;99.90
22680;DHT22;11507;44.858;10.374;2023-11-21T06:30:12;9.70;99.90
22680;DHT22;11507;44.858;10.374;2023-11-21T06:32:39;9.80;99.90
22680;DHT22;11507;44.858;10.374;2023-11-21T06:35:07;9.80;99.90
22680;DHT22;11507;44.858;10.374;2023-11-21T06:37:34;9.70;99.90
22680;DHT22;11507;44.858;10.374;2023-11-21T06:40:00;9.70;99.90
22680;DHT22;11507;44.858;10.374;2023-11-21T06:42:27;9.80;99.90
22680;DHT22;11507;44.858;10.374;2023-11-21T06:44:55;9.80;99.90
22680;DHT22;11507;44.858;10.374;2023-11-21T06:47:25;9.80;99.90
22680;DHT22;11507;44.858;10.374;2023-11-21T06:49:53;9.80;99.90
22680;DHT22;11507;44.858;10.374;2023-11-21T06:52:20;9.70;99.90
22680;DHT22;11507;44.858;10.374;2023-11-21T06:54:47;9.70;99.90
22680;DHT22;11507;44.858;10.374;2023-11-21T06:57:16;9.70;99.90
22680;DHT22;11507;44.858;10.374;2023-11-21T06:59:43;9.70;99.90
22680;DHT22;11507;44.858;10.374;2023-11-21T07:02:09;9.70;99.90
22680;DHT22;11507;44.858;10.374;2023-11-21T07:04:36;9.70;99.90
22680;DHT22;11507;44.858;10.374;2023-11-21T07:07:03;9.70;99.90
22680;DHT22;11507;44.858;10.374;2023-11-21T07:09:30;9.70;99.90
22680;DHT22;11507;44.858;10.374;2023-11-21T07:11:56;9.80;99.90
22680;DHT22;11507;44.858;10.374;2023-11-21T07:14:23;9.70;99.90
22680;DHT22;11507;44.858;10.374;2023-11-21T07:16:49;9.70;99.90
22680;DHT22;11507;44.858;10.374;2023-11-21T07:23:10;9.70;99.90
22680;DHT22;11507;44.858;10.374;2023-11-21T07:25:37;9.70;99.90
22680;DHT22;11507;44.858;10.374;2023-11-21T07:28:04;9.80;99.90
22680;DHT22;11507;44.858;10.374;2023-11-21T07:30:31;9.80;99.90
22680;DHT22;11507;44.858;10.374;2023-11-21T07:32:58;9.80;99.90
22680;DHT22;11507;44.858;10.374;2023-11-21T07:35:40;9.80;99.90
22680;DHT22;11507;44.858;10.374;2023-11-21T07:38:06;9.90;99.90
22680;DHT22;11507;44.858;10.374;2023-11-21T07:40:35;9.90;99.90
22680;DHT22;11507;44.858;10.374;2023-11-21T07:43:02;9.90;99.90
22680;DHT22;11507;44.858;10.374;2023-11-21T07:45:28;9.90;99.90
22680;DHT22;11507;44.858;10.374;2023-11-21T07:47:55;10.00;99.90
22680;DHT22;11507;44.858;10.374;2023-11-21T07:50:24;10.00;99.90
22680;DHT22;11507;44.858;10.374;2023-11-21T07:52:50;10.00;99.90
22680;DHT22;11507;44.858;10.374;2023-11-21T07:55:16;10.00;99.90
22680;DHT22;11507;44.858;10.374;2023-11-21T07:57:42;10.00;99.90
22680;DHT22;11507;44.858;10.374;2023-11-21T08:00:08;10.00;99.90
22680;DHT22;11507;44.858;10.374;2023-11-21T08:02:39;10.00;99.90
22680;DHT22;11507;44.858;10.374;2023-11-21T08:17:06;10.10;99.90
22680;DHT22;11507;44.858;10.374;2023-11-21T08:19:32;10.20;99.90
22680;DHT22;11507;44.858;10.374;2023-11-21T08:21:58;10.30;99.90
22680;DHT22;11507;44.858;10.374;2023-11-21T08:24:27;10.20;99.90
22680;DHT22;11507;44.858;10.374;2023-11-21T08:26:53;10.30;99.90
22680;DHT22;11507;44.858;10.374;2023-11-21T08:29:21;10.40;99.90
22680;DHT22;11507;44.858;10.374;2023-11-21T08:31:50;10.40;99.90
22680;DHT22;11507;44.858;10.374;2023-11-21T08:34:16;10.40;99.90
22680;DHT22;11507;44.858;10.374;2023-11-21T08:36:45;10.50;99.90
22680;DHT22;11507;44.858;10.374;2023-11-21T08:39:12;10.50;99.90
22680;DHT22;11507;44.858;10.374;2023-11-21T08:41:39;10.50;99.90
22680;DHT22;11507;44.858;10.374;2023-11-21T08:44:05;10.60;99.90
22680;DHT22;11507;44.858;10.374;2023-11-21T08:46:33;10.60;99.90
22680;DHT22;11507;44.858;10.374;2023-11-21T08:49:03;10.60;99.90
22680;DHT22;11507;44.858;10.374;2023-11-21T08:51:30;10.60;99.90
22680;DHT22;11507;44.858;10.374;2023-11-21T08:53:57;10.70;99.90
22680;DHT22;11507;44.858;10.374;2023-11-21T08:56:27;10.60;99.90
22680;DHT22;11507;44.858;10.374;2023-11-21T08:58:54;10.60;99.90
22680;DHT22;11507;44.858;10.374;2023-11-21T09:01:20;10.60;99.90
22680;DHT22;11507;44.858;10.374;2023-11-21T09:03:47;10.60;99.90
22680;DHT22;11507;44.858;10.374;2023-11-21T09:06:14;10.70;99.90
22680;DHT22;11507;44.858;10.374;2023-11-21T09:08:40;10.70;99.90
22680;DHT22;11507;44.858;10.374;2023-11-21T09:11:07;10.60;99.90
22680;DHT22;11507;44.858;10.374;2023-11-21T09:13:34;10.60;99.90
22680;DHT22;11507;44.858;10.374;2023-11-21T09:16:00;10.50;99.90
22680;DHT22;11507;44.858;10.374;2023-11-21T09:18:30;10.50;99.90
22680;DHT22;11507;44.858;10.374;2023-11-21T09:20:56;10.40;99.90
22680;DHT22;11507;44.858;10.374;2023-11-21T09:23:23;10.40;99.90
22680;DHT22;11507;44.858;10.374;2023-11-21T09:25:50;10.40;99.90
22680;DHT22;11507;44.858;10.374;2023-11-21T09:28:18;10.30;99.90
22680;DHT22;11507;44.858;10.374;2023-11-21T09:30:44;10.40;99.90
22680;DHT22;11507;44.858;10.374;2023-11-21T09:33:10;10.30;99.90
22680;DHT22;11507;44.858;10.374;2023-11-21T09:35:39;10.40;99.90
22680;DHT22;11507;44.858;10.374;2023-11-21T09:38:06;10.30;99.90
22680;DHT22;11507;44.858;10.374;2023-11-21T09:40:38;10.30;99.90
22680;DHT22;11507;44.858;10.374;2023-11-21T09:43:08;10.30;99.90
22680;DHT22;11507;44.858;10.374;2023-11-21T09:45:45;10.30;99.90
22680;DHT22;11507;44.858;10.374;2023-11-21T09:48:14;10.30;99.90
22680;DHT22;11507;44.858;10.374;2023-11-21T09:50:43;10.30;99.90
22680;DHT22;11507;44.858;10.374;2023-11-21T09:53:21;10.30;99.90
22680;DHT22;11507;44.858;10.374;2023-11-21T09:55:52;10.30;99.90
22680;DHT22;11507;44.858;10.374;2023-11-21T09:58:20;10.30;99.90
22680;DHT22;11507;44.858;10.374;2023-11-21T10:00:58;10.30;99.90
22680;DHT22;11507;44.858;10.374;2023-11-21T10:03:29;10.40;99.90
22680;DHT22;11507;44.858;10.374;2023-11-21T10:05:57;10.40;99.90
22680;DHT22;11507;44.858;10.374;2023-11-21T10:08:27;10.40;99.90
22680;DHT22;11507;44.858;10.374;2023-11-21T10:10:58;10.40;99.90
22680;DHT22;11507;44.858;10.374;2023-11-21T10:13:31;10.50;99.90
22680;DHT22;11507;44.858;10.374;2023-11-21T10:15:59;10.50;99.90
22680;DHT22;11507;44.858;10.374;2023-11-21T10:18:27;10.50;99.90
22680;DHT22;11507;44.858;10.374;2023-11-21T10:20:55;10.50;99.90
22680;DHT22;11507;44.858;10.374;2023-11-21T10:23:23;10.60;99.90
22680;DHT22;11507;44.858;10.374;2023-11-21T10:25:56;10.60;99.90
22680;DHT22;11507;44.858;10.374;2023-11-21T10:28:27;10.60;99.90
22680;DHT22;11507;44.858;10.374;2023-11-21T10:30:54;10.60;99.90
22680;DHT22;11507;44.858;10.374;2023-11-21T10:33:31;10.70;99.90
22680;DHT22;11507;44.858;10.374;2023-11-21T10:36:00;10.60;99.90
22680;DHT22;11507;44.858;10.374;2023-11-21T10:38:27;10.70;99.90
22680;DHT22;11507;44.858;10.374;2023-11-21T10:40:57;10.70;99.90
22680;DHT22;11507;44.858;10.374;2023-11-21T10:43:27;10.80;99.90
22680;DHT22;11507;44.858;10.374;2023-11-21T10:45:58;10.80;99.90
22680;DHT22;11507;44.858;10.374;2023-11-21T10:48:27;10.80;99.90
22680;DHT22;11507;44.858;10.374;2023-11-21T10:50:56;10.90;99.90
22680;DHT22;11507;44.858;10.374;2023-11-21T10:53:22;10.90;99.90
22680;DHT22;11507;44.858;10.374;2023-11-21T10:55:49;10.90;99.90
22680;DHT22;11507;44.858;10.374;2023-11-21T10:58:16;10.90;99.90
22680;DHT22;11507;44.858;10.374;2023-11-21T11:00:44;10.90;99.90
22680;DHT22;11507;44.858;10.374;2023-11-21T11:03:15;11.00;99.90
22680;DHT22;11507;44.858;10.374;2023-11-21T11:05:50;11.00;99.90
22680;DHT22;11507;44.858;10.374;2023-11-21T11:08:27;11.00;99.90
22680;DHT22;11507;44.858;10.374;2023-11-21T11:11:06;11.00;99.90
22680;DHT22;11507;44.858;10.374;2023-11-21T11:13:45;11.00;99.90
22680;DHT22;11507;44.858;10.374;2023-11-21T11:16:18;11.00;99.90
22680;DHT22;11507;44.858;10.374;2023-11-21T11:18:51;11.10;99.90
22680;DHT22;11507;44.858;10.374;2023-11-21T11:33:09;11.40;99.90
22680;DHT22;11507;44.858;10.374;2023-11-21T11:38:34;11.70;99.90
22680;DHT22;11507;44.858;10.374;2023-11-21T11:41:09;11.80;99.90
22680;DHT22;11507;44.858;10.374;2023-11-21T11:43:45;11.90;99.90
22680;DHT22;11507;44.858;10.374;2023-11-21T11:46:22;12.00;99.90
22680;DHT22;11507;44.858;10.374;2023-11-21T11:49:29;12.00;99.90
22680;DHT22;11507;44.858;10.374;2023-11-21T11:55:17;12.10;99.90
22680;DHT22;11507;44.858;10.374;2023-11-21T11:57:55;12.40;99.90
22680;DHT22;11507;44.858;10.374;2023-11-21T12:00:35;12.50;99.90
22680;DHT22;11507;44.858;10.374;2023-11-21T12:03:12;12.70;99.90
22680;DHT22;11507;44.858;10.374;2023-11-21T12:05:44;12.80;99.90
22680;DHT22;11507;44.858;10.374;2023-11-21T12:08:18;12.90;99.90
22680;DHT22;11507;44.858;10.374;2023-11-21T12:10:54;13.00;99.90
22680;DHT22;11507;44.858;10.374;2023-11-21T12:13:25;13.30;99.90
22680;DHT22;11507;44.858;10.374;2023-11-21T12:15:59;13.40;99.90
22680;DHT22;11507;44.858;10.374;2023-11-21T12:18:30;13.50;99.90
22680;DHT22;11507;44.858;10.374;2023-11-21T12:21:01;13.50;99.90
22680;DHT22;11507;44.858;10.374;2023-11-21T12:23:36;13.50;99.90
22680;DHT22;11507;44.858;10.374;2023-11-21T12:26:07;13.40;99.90
22680;DHT22;11507;44.858;10.374;2023-11-21T12:28:36;13.20;99.90
22680;DHT22;11507;44.858;10.374;2023-11-21T12:31:05;13.20;99.90
22680;DHT22;11507;44.858;10.374;2023-11-21T12:33:36;13.30;99.90
22680;DHT22;11507;44.858;10.374;2023-11-21T12:36:04;13.30;99.90
22680;DHT22;11507;44.858;10.374;2023-11-21T12:38:36;13.30;99.90
22680;DHT22;11507;44.858;10.374;2023-11-21T12:41:04;13.30;99.90
22680;DHT22;11507;44.858;10.374;2023-11-21T12:43:32;13.20;99.90
22680;DHT22;11507;44.858;10.374;2023-11-21T12:46:10;13.30;99.90
22680;DHT22;11507;44.858;10.374;2023-11-21T12:48:38;13.40;99.90
22680;DHT22;11507;44.858;10.374;2023-11-21T12:51:07;13.50;99.90
22680;DHT22;11507;44.858;10.374;2023-11-21T12:53:35;13.60;99.90
22680;DHT22;11507;44.858;10.374;2023-11-21T12:56:14;13.60;99.90
22680;DHT22;11507;44.858;10.374;2023-11-21T12:58:50;13.60;99.90
22680;DHT22;11507;44.858;10.374;2023-11-21T13:01:18;13.60;99.90
22680;DHT22;11507;44.858;10.374;2023-11-21T13:03:50;13.70;99.90
22680;DHT22;11507;44.858;10.374;2023-11-21T13:06:24;13.90;99.90
22680;DHT22;11507;44.858;10.374;2023-11-21T13:08:55;13.90;99.90
22680;DHT22;11507;44.858;10.374;2023-11-21T13:11:27;14.00;99.90
22680;DHT22;11507;44.858;10.374;2023-11-21T13:14:02;14.10;99.90
22680;DHT22;11507;44.858;10.374;2023-11-21T13:16:36;14.10;99.90
22680;DHT22;11507;44.858;10.374;2023-11-21T13:19:05;14.10;99.90
22680;DHT22;11507;44.858;10.374;2023-11-21T13:21:36;14.10;99.90
22680;DHT22;11507;44.858;10.374;2023-11-21T13:24:08;14.10;99.90
22680;DHT22;11507;44.858;10.374;2023-11-21T13:26:37;14.00;99.90
22680;DHT22;11507;44.858;10.374;2023-11-21T13:29:08;13.90;99.90
22680;DHT22;11507;44.858;10.374;2023-11-21T13:31:41;13.90;99.90
22680;DHT22;11507;44.858;10.374;2023-11-21T13:34:11;13.80;99.90
22680;DHT22;11507;44.858;10.374;2023-11-21T13:36:43;13.70;99.90
22680;DHT22;11507;44.858;10.374;2023-11-21T13:39:11;13.60;99.90
22680;DHT22;11507;44.858;10.374;2023-11-21T13:41:42;13.50;99.90
22680;DHT22;11507;44.858;10.374;2023-11-21T13:44:10;13.50;99.90
22680;DHT22;11507;44.858;10.374;2023-11-21T13:46:56;13.50;99.90
22680;DHT22;11507;44.858;10.374;2023-11-21T13:49:27;13.40;99.90
22680;DHT22;11507;44.858;10.374;2023-11-21T13:52:00;13.40;99.90
22680;DHT22;11507;44.858;10.374;2023-11-21T13:54:30;13.30;99.90
22680;DHT22;11507;44.858;10.374;2023-11-21T13:56:58;13.30;99.90
22680;DHT22;11507;44.858;10.374;2023-11-21T13:59:27;13.30;99.90
22680;DHT22;11507;44.858;10.374;2023-11-21T14:01:57;13.30;99.90
22680;DHT22;11507;44.858;10.374;2023-11-21T14:04:38;13.30;99.90
22680;DHT22;11507;44.858;10.374;2023-11-21T14:07:27;13.30;99.90
22680;DHT22;11507;44.858;10.374;2023-11-21T14:10:04;13.30;99.90
22680;DHT22;11507;44.858;10.374;2023-11-21T14:12:39;13.20;99.90
22680;DHT22;11507;44.858;10.374;2023-11-21T14:15:07;13.20;99.90
22680;DHT22;11507;44.858;10.374;2023-11-21T14:17:36;13.10;99.90
22680;DHT22;11507;44.858;10.374;2023-11-21T14:20:07;13.10;99.90
22680;DHT22;11507;44.858;10.374;2023-11-21T14:22:40;13.10;99.90
22680;DHT22;11507;44.858;10.374;2023-11-21T14:25:07;13.00;99.90
22680;DHT22;11507;44.858;10.374;2023-11-21T14:27:35;12.90;99.90
22680;DHT22;11507;44.858;10.374;2023-11-21T14:30:02;12.80;99.90
22680;DHT22;11507;44.858;10.374;2023-11-21T14:32:29;12.70;99.90
22680;DHT22;11507;44.858;10.374;2023-11-21T14:34:57;12.60;99.90
22680;DHT22;11507;44.858;10.374;2023-11-21T14:37:24;12.60;99.90
22680;DHT22;11507;44.858;10.374;2023-11-21T14:39:54;12.50;99.90
22680;DHT22;11507;44.858;10.374;2023-11-21T14:42:21;12.50;99.90
22680;DHT22;11507;44.858;10.374;2023-11-21T14:44:51;12.40;99.90
22680;DHT22;11507;44.858;10.374;2023-11-21T14:47:18;12.40;99.90
22680;DHT22;11507;44.858;10.374;2023-11-21T14:49:51;12.30;99.90
22680;DHT22;11507;44.858;10.374;2023-11-21T14:52:23;12.30;99.90
22680;DHT22;11507;44.858;10.374;2023-11-21T14:55:02;12.20;99.90
22680;DHT22;11507;44.858;10.374;2023-11-21T14:57:57;12.20;99.90
22680;DHT22;11507;44.858;10.374;2023-11-21T15:00:28;12.10;99.90
22680;DHT22;11507;44.858;10.374;2023-11-21T15:03:01;12.10;99.90
22680;DHT22;11507;44.858;10.374;2023-11-21T15:05:28;12.00;99.90
22680;DHT22;11507;44.858;10.374;2023-11-21T15:07:56;12.00;99.90
22680;DHT22;11507;44.858;10.374;2023-11-21T15:10:34;11.90;99.90
22680;DHT22;11507;44.858;10.374;2023-11-21T15:13:20;11.90;99.90
22680;DHT22;11507;44.858;10.374;2023-11-21T15:15:52;11.80;99.90
22680;DHT22;11507;44.858;10.374;2023-11-21T15:18:22;11.80;99.90
22680;DHT22;11507;44.858;10.374;2023-11-21T15:20:48;11.80;99.90
22680;DHT22;11507;44.858;10.374;2023-11-21T15:23:16;11.80;99.90
22680;DHT22;11507;44.858;10.374;2023-11-21T15:25:45;11.70;99.90
22680;DHT22;11507;44.858;10.374;2023-11-21T15:28:13;11.70;99.90
22680;DHT22;11507;44.858;10.374;2023-11-21T15:30:41;11.60;99.90
22680;DHT22;11507;44.858;10.374;2023-11-21T15:33:12;11.60;99.90
22680;DHT22;11507;44.858;10.374;2023-11-21T15:35:39;11.60;99.90
22680;DHT22;11507;44.858;10.374;2023-11-21T15:38:07;11.60;99.90
22680;DHT22;11507;44.858;10.374;2023-11-21T15:40:34;11.50;99.90
22680;DHT22;11507;44.858;10.374;2023-11-21T15:43:01;11.50;99.90
22680;DHT22;11507;44.858;10.374;2023-11-21T15:45:30;11.40;99.90
22680;DHT22;11507;44.858;10.374;2023-11-21T15:47:57;11.40;99.90
22680;DHT22;11507;44.858;10.374;2023-11-21T15:50:25;11.30;99.90
22680;DHT22;11507;44.858;10.374;2023-11-21T15:52:53;11.30;99.90
22680;DHT22;11507;44.858;10.374;2023-11-21T15:55:21;11.30;99.90
22680;DHT22;11507;44.858;10.374;2023-11-21T15:57:48;11.30;99.90
22680;DHT22;11507;44.858;10.374;2023-11-21T16:00:15;11.20;99.90
22680;DHT22;11507;44.858;10.374;2023-11-21T16:02:46;11.20;99.90
22680;DHT22;11507;44.858;10.374;2023-11-21T16:05:12;11.20;99.90
22680;DHT22;11507;44.858;10.374;2023-11-21T16:07:44;11.20;99.90
22680;DHT22;11507;44.858;10.374;2023-11-21T16:10:11;11.10;99.90
22680;DHT22;11507;44.858;10.374;2023-11-21T16:12:40;11.10;99.90
22680;DHT22;11507;44.858;10.374;2023-11-21T16:15:07;11.10;99.90
22680;DHT22;11507;44.858;10.374;2023-11-21T16:17:35;11.10;99.90
22680;DHT22;11507;44.858;10.374;2023-11-21T16:20:05;11.00;99.90
22680;DHT22;11507;44.858;10.374;2023-11-21T16:22:35;11.00;99.90
22680;DHT22;11507;44.858;10.374;2023-11-21T16:25:02;11.00;99.90